createdAt,value
2022-12-18T00:03:04.928Z,86.62
2022-12-18T00:18:07.589Z,86.96
2022-12-18T00:33:09.548Z,87.03
2022-12-18T00:48:11.509Z,87.30
2022-12-18T01:03:16.476Z,87.14
2022-12-18T01:18:18.830Z,87.14
2022-12-18T01:33:20.770Z,87.27
2022-12-18T01:48:22.768Z,86.93
2022-12-18T02:03:24.934Z,86.77
2022-12-18T02:18:36.474Z,86.62
2022-12-18T02:33:40.933Z,86.92
2022-12-18T02:48:43.181Z,86.68
2022-12-18T03:04:02.110Z,86.69
2022-12-18T03:19:10.268Z,87.09
2022-12-18T03:34:23.023Z,87.07
2022-12-18T03:49:33.590Z,87.17
2022-12-18T04:04:38.622Z,87.30
2022-12-18T04:19:40.472Z,87.91
2022-12-18T04:34:42.982Z,87.74
2022-12-18T04:49:44.882Z,88.32
2022-12-18T05:04:46.803Z,89.28
2022-12-18T05:19:48.744Z,89.38
2022-12-18T05:34:50.621Z,89.32
2022-12-18T05:49:52.502Z,89.43
2022-12-18T06:04:54.412Z,90.06
2022-12-18T06:19:56.679Z,90.18
2022-12-18T06:34:58.610Z,90.06
2022-12-18T06:50:00.504Z,89.70
2022-12-18T07:05:07.479Z,90.15
2022-12-18T07:20:12.420Z,90.38
2022-12-18T07:35:14.873Z,90.06
2022-12-18T07:50:17.025Z,90.81
2022-12-18T08:05:18.953Z,90.29
2022-12-18T08:20:20.822Z,89.95
2022-12-18T08:35:22.843Z,90.12
2022-12-18T08:50:24.902Z,89.19
2022-12-18T09:05:26.873Z,88.98
2022-12-18T09:20:31.081Z,89.23
2022-12-18T09:35:32.961Z,88.73
2022-12-18T09:50:40.641Z,88.32
2022-12-18T10:05:51.322Z,88.48
2022-12-18T10:20:57.324Z,88.05
2022-12-18T10:35:59.279Z,87.50
2022-12-18T10:51:10.726Z,87.52
2022-12-18T11:06:17.008Z,87.19
2022-12-18T11:21:19.001Z,86.98
2022-12-18T11:36:22.559Z,86.82
2022-12-18T11:51:43.048Z,86.77
2022-12-18T12:07:03.991Z,86.82
2022-12-18T12:22:14.906Z,87.10
2022-12-18T12:37:39.762Z,87.54
2022-12-18T12:52:46.643Z,87.12
2022-12-18T13:08:00.607Z,87.67
2022-12-18T13:23:03.264Z,87.37
2022-12-18T13:38:27.503Z,87.73
2022-12-18T13:53:35.013Z,88.80
2022-12-18T14:08:41.824Z,89.51
2022-12-18T14:23:44.371Z,89.80
2022-12-18T14:38:55.065Z,89.80
2022-12-18T14:54:02.305Z,89.81
2022-12-18T15:09:24.246Z,89.52
2022-12-18T15:24:31.827Z,89.43
2022-12-18T15:39:33.784Z,89.12
2022-12-18T15:54:54.066Z,89.78
2022-12-18T16:09:57.262Z,89.72
2022-12-18T16:24:59.506Z,89.58
2022-12-18T16:40:01.386Z,89.52
2022-12-18T16:55:04.208Z,89.12
2022-12-18T17:10:07.818Z,89.37
2022-12-18T17:25:10.264Z,90.17
2022-12-18T17:40:12.409Z,89.61
2022-12-18T17:55:14.346Z,89.84
2022-12-18T18:10:16.446Z,89.84
2022-12-18T18:25:18.427Z,90.53
2022-12-18T18:40:21.684Z,90.41
2022-12-18T18:55:25.634Z,90.72
2022-12-18T19:10:29.308Z,90.89
2022-12-18T19:25:40.607Z,90.45
2022-12-18T19:40:44.428Z,90.07
2022-12-18T19:55:46.368Z,89.97
2022-12-18T20:10:50.388Z,89.76
2022-12-18T20:25:57.487Z,89.58
2022-12-18T20:41:02.109Z,89.88
2022-12-18T20:56:13.709Z,90.13
2022-12-18T21:11:38.028Z,89.76
2022-12-18T21:26:46.440Z,89.83
2022-12-18T21:42:07.228Z,89.93
2022-12-18T21:57:11.307Z,90.13
2022-12-18T22:12:34.269Z,89.67
2022-12-18T22:27:36.428Z,89.82
2022-12-18T22:42:38.349Z,89.88
2022-12-18T22:57:41.164Z,89.99
2022-12-18T23:12:49.988Z,89.69
2022-12-18T23:27:52.007Z,89.46
2022-12-18T23:42:53.907Z,89.55
2022-12-18T23:57:55.893Z,89.39
